Pagina principale
METAR-TAF:

METAR-TAF

Aeroporti :

Aeroporto militare Cameri

Novara, Italia

latitudine: 45-31N, longitudine: 008-40E, altezza: 178 m

Osservazione

Il bollettino è stato emesso 47 minuti fa, alle 09:55 UTC
Vento 4 kt da nord/nord-est, variando fra nord/nord-ovest e est
Temperature 18°C
Umidità 68%
Pressione 1019 hPa
Visibilità: 8000 m
Nuvoloso ad un'altezza di 6000 ft

METAR: LIMN 150955Z 03004KT 340V090 8000 BKN060 18/12 Q1019 RMK BKN VIS MIN 8000 BLU

Ora: 12:42 (10:42 UTC)

Previsione

Il bollettino è stato emesso 2 ore e 42 minuti fa, alle 08:00 UTC
Previsione valida dal 15 alle 09 UTC al 15 alle 18 UTC
Vento 8 kt da est/nord-est
Visibilità 10 km o più
Poco nuvoloso ad un'altezza di 3000 ft
Nubi sparse ad un'altezza di 6000 ft

TAF: LIMN 150800Z 1509/1518 07008KT 9999 FEW030 SCT060

Osservazioni e previsioni meteorologiche di più di 4000 aeroporti (messaggi METAR e TAF).

Le stazioni disponibili sono rappresentate dai dischi gialli e rossi sulla carta.

Puntare il mouse per vedere il nome della stazione.

Clicca sopra per visualizzare le osservazioni e previsioni meteorologiche.

Per cambiare la mappa : fare clic sui pulsanti verdi con una croce nera per ingrandire, il pulsante verde con un trattino per diminuire, o sulla freccia verde per le mappe adiacenti.


METAR-TAF: